GIJÓN CAMPUS, ASTURIAS

latitud = 43° 31' 23''N | Longitud = 005° 37' 16''W
26 metros sobre el nivel del mar | datos mensuales

Fecha, hora, temperatura, viento dirección y velocidad, humedad y presión.

  • 22-11-2017 09:00:00 | 5.20°C | Sudeste |5.00 km/h | 91.00% | 1004.80 hPa
  • 22-11-2017 08:00:00 | 5.50°C | Sudeste |5.00 km/h | 88.00% | 1005.00 hPa
  • 22-11-2017 07:00:00 | 4.70°C | Sudeste |9.00 km/h | 90.00% | 1005.50 hPa
  • 22-11-2017 06:00:00 | 4.80°C | Nordeste |3.00 km/h | 89.00% | 1005.70 hPa
  • 22-11-2017 05:00:00 | 4.10°C | Sudeste |6.00 km/h | 91.00% | 1006.50 hPa
  • 22-11-2017 04:00:00 | 3.80°C | Este |4.00 km/h | 94.00% | 1007.10 hPa
  • 22-11-2017 03:00:00 | 3.60°C | Sudeste |4.00 km/h | 96.00% | 1007.90 hPa
  • 22-11-2017 02:00:00 | 3.10°C | Sudeste |8.00 km/h | 97.00% | 1009.00 hPa
  • 22-11-2017 01:00:00 | 3.70°C | Sudoeste |2.00 km/h | 96.00% | 1009.50 hPa
  • 22-11-2017 00:00:00 | 4.20°C | Sudeste |4.00 km/h | 97.00% | 1010.70 hPa
  • 21-11-2017 23:00:00 | 4.40°C | Sudeste |5.00 km/h | 98.00% | 1011.10 hPa
  • 21-11-2017 22:00:00 | 5.30°C | Sudeste |4.00 km/h | 96.00% | 1011.80 hPa
  • 21-11-2017 21:00:00 | 6.30°C | Este |6.00 km/h | 95.00% | 1012.00 hPa
  • 21-11-2017 20:00:00 | 7.90°C | Sudeste |3.00 km/h | 92.00% | 1012.30 hPa
  • 21-11-2017 19:00:00 | 9.70°C | Sudeste |7.00 km/h | 88.00% | 1012.60 hPa
  • 21-11-2017 18:00:00 | 13.60°C | Sudeste |4.00 km/h | 83.00% | 1012.70 hPa
  • 21-11-2017 17:00:00 | 18.10°C | Oeste |4.00 km/h | 61.00% | 1013.00 hPa
  • 21-11-2017 16:00:00 | 20.10°C | Oeste |5.00 km/h | 51.00% | 1012.90 hPa
  • 21-11-2017 15:00:00 | 19.40°C | Norte |4.00 km/h | 51.00% | 1013.60 hPa
  • 21-11-2017 14:00:00 | 20.40°C | Sudoeste |2.00 km/h | 44.00% | 1014.50 hPa
  • 21-11-2017 13:00:00 | 18.30°C | Este |2.00 km/h | 53.00% | 1015.20 hPa
  • 21-11-2017 12:00:00 | 15.30°C | Nordeste |3.00 km/h | 59.00% | 1016.20 hPa
  • 21-11-2017 11:00:00 | 12.20°C | Sudeste |4.00 km/h | 68.00% | 1016.70 hPa
  • 21-11-2017 10:00:00 | 6.30°C | Sudeste |6.00 km/h | 95.00% | 1017.00 hPa
    • Gijón hora a hora, datos reales de la temperatura, viento dirección, velocidad, más la humedad relativa y presión atmosférica.
      La estación meteorológica del Campus de Viesques de Gijón hora a hora, mes a mes, año a año; presentada de una forma gráfica, datos recogidos desde el mes de enero del año 2014. Recomendamos un ordenador de sobremesa: https://meteorologia.tike10.com/asturias-gijon.php